Time;durP1;ratioP1;P1;durP2;ratioP2;P2;SDS_P1;SDS_P2;PMS_P1;PMS_P2;Temp;Humidity;BMP_temperature;BMP_pressure;BME280_temperature;BME280_humidity;BME280_pressure;Samples;Min_cycle;Max_cycle;Signal;HPM_P1;HPM_P2
2022/07/23 00:00:15;;;;;;;2.33;1.55;;;14.70;99.90;;;;;;5065348;28;20076;-72
2022/07/23 00:02:41;;;;;;;4.43;1.75;;;14.70;99.90;;;;;;5064976;28;20045;-71
2022/07/23 00:05:07;;;;;;;6.75;1.77;;;14.70;99.90;;;;;;5065978;28;20083;-72
2022/07/23 00:07:33;;;;;;;2.80;1.55;;;14.70;99.90;;;;;;5066759;28;20116;-72
2022/07/23 00:09:59;;;;;;;6.80;1.55;;;15.50;99.90;;;;;;5066520;28;20127;-72
2022/07/23 00:12:25;;;;;;;2.78;1.50;;;14.70;99.90;;;;;;5064864;28;20044;-72
2022/07/23 00:14:51;;;;;;;4.85;1.63;;;14.70;99.90;;;;;;5066906;28;20476;-72
2022/07/23 00:17:17;;;;;;;9.30;2.22;;;14.80;99.90;;;;;;5066011;28;20044;-71
2022/07/23 00:19:42;;;;;;;4.80;1.88;;;14.80;99.90;;;;;;5066025;28;20090;-72
2022/07/23 00:22:08;;;;;;;4.43;1.70;;;14.80;99.90;;;;;;5066202;28;20557;-72
2022/07/23 00:24:34;;;;;;;7.30;1.70;;;14.80;99.90;;;;;;5064629;28;20056;-71
2022/07/23 00:27:00;;;;;;;3.05;1.40;;;14.80;99.90;;;;;;5065408;28;20045;-71
2022/07/23 00:29:25;;;;;;;8.02;1.60;;;14.80;99.90;;;;;;5064555;28;20466;-71
2022/07/23 00:31:51;;;;;;;6.63;1.60;;;14.80;99.90;;;;;;5066420;28;20684;-71
2022/07/23 00:34:17;;;;;;;4.28;1.42;;;14.80;99.90;;;;;;5064301;28;20494;-71
2022/07/23 00:36:43;;;;;;;3.05;1.42;;;14.80;99.90;;;;;;5065162;28;20131;-71
2022/07/23 00:39:09;;;;;;;3.25;1.33;;;14.80;99.90;;;;;;5064433;28;20140;-71
2022/07/23 00:41:34;;;;;;;4.82;1.38;;;14.80;99.90;;;;;;5066572;28;20636;-71
2022/07/23 00:44:23;;;;;;;4.68;1.33;;;14.80;99.90;;;;;;5066320;28;20376;-71
2022/07/23 00:46:55;;;;;;;4.13;1.35;;;14.70;99.90;;;;;;5065450;28;20044;-71
2022/07/23 00:49:22;;;;;;;3.40;1.42;;;14.80;99.90;;;;;;5065989;28;20615;-71
2022/07/23 00:51:49;;;;;;;6.55;1.17;;;14.80;99.90;;;;;;5057196;28;20126;-71
2022/07/23 00:54:16;;;;;;;2.70;1.45;;;14.70;99.90;;;;;;5064422;28;20044;-71
2022/07/23 00:56:44;;;;;;;4.30;1.15;;;14.80;99.90;;;;;;5065915;28;20093;-71
2022/07/23 00:59:10;;;;;;;3.80;1.30;;;14.80;99.90;;;;;;5065410;28;20075;-71
2022/07/23 01:01:36;;;;;;;1.40;0.90;;;14.70;99.90;;;;;;5066315;28;20048;-71
2022/07/23 01:04:03;;;;;;;6.07;2.05;;;14.70;99.90;;;;;;5064092;28;20546;-71
2022/07/23 01:06:28;;;;;;;1.30;1.25;;;14.70;99.90;;;;;;5065586;28;20044;-71
2022/07/23 01:08:55;;;;;;;1.40;1.05;;;14.70;99.90;;;;;;5065452;28;20113;-71
2022/07/23 01:11:23;;;;;;;1.90;1.02;;;14.70;99.90;;;;;;5064573;28;20527;-71
2022/07/23 01:13:49;;;;;;;3.72;1.58;;;14.60;99.90;;;;;;5064854;28;20099;-71
2022/07/23 01:16:15;;;;;;;1.30;1.20;;;14.60;99.90;;;;;;5063465;28;20136;-71
2022/07/23 01:18:40;;;;;;;4.60;1.50;;;14.60;99.90;;;;;;5066022;28;20138;-71
2022/07/23 01:21:06;;;;;;;3.53;1.90;;;14.60;99.90;;;;;;5064900;28;20058;-71
2022/07/23 01:23:32;;;;;;;7.22;2.13;;;14.70;99.90;;;;;;5064989;28;20127;-71
2022/07/23 01:25:57;;;;;;;3.70;2.05;;;14.60;99.90;;;;;;5064924;28;20560;-71
2022/07/23 01:28:23;;;;;;;2.42;1.92;;;14.60;99.90;;;;;;5047561;28;20100;-71
2022/07/23 01:30:49;;;;;;;3.00;1.85;;;14.60;99.90;;;;;;5063138;28;20045;-71
2022/07/23 01:33:18;;;;;;;6.38;2.00;;;14.60;99.90;;;;;;5068583;28;20041;-71
2022/07/23 01:35:43;;;;;;;8.25;2.67;;;14.60;99.90;;;;;;5069629;28;20170;-71
2022/07/23 01:38:09;;;;;;;2.72;2.00;;;14.50;99.90;;;;;;5067936;28;20049;-71
2022/07/23 01:40:35;;;;;;;2.80;1.90;;;14.50;99.90;;;;;;5069021;28;20052;-71
2022/07/23 01:43:00;;;;;;;5.70;2.08;;;14.50;99.90;;;;;;5068906;28;20040;-71
2022/07/23 01:45:26;;;;;;;6.28;2.10;;;14.50;99.90;;;;;;5069245;28;20407;-71
2022/07/23 01:47:52;;;;;;;4.68;2.00;;;14.40;99.90;;;;;;5068935;28;20045;-71
2022/07/23 01:50:18;;;;;;;6.85;1.60;;;14.40;99.90;;;;;;5068665;28;20044;-71
2022/07/23 01:52:43;;;;;;;3.50;1.27;;;14.40;99.90;;;;;;5069247;28;20083;-71
2022/07/23 01:55:09;;;;;;;4.90;1.85;;;14.30;99.90;;;;;;5069292;28;20035;-71
2022/07/23 01:57:35;;;;;;;4.95;1.88;;;14.20;99.90;;;;;;5068993;28;20135;-71
2022/07/23 02:00:01;;;;;;;5.95;2.30;;;14.20;99.90;;;;;;5068669;28;20037;-72
2022/07/23 02:02:26;;;;;;;3.45;2.30;;;14.10;99.90;;;;;;5069102;28;20041;-71
2022/07/23 02:04:52;;;;;;;4.97;2.10;;;14.10;99.90;;;;;;5067512;28;20055;-72
2022/07/23 02:07:18;;;;;;;5.53;2.42;;;14.10;99.90;;;;;;5068789;28;20041;-71
2022/07/23 02:09:43;;;;;;;6.10;2.85;;;14.00;99.90;;;;;;5068326;28;20503;-71
2022/07/23 02:12:09;;;;;;;4.97;2.50;;;14.00;99.90;;;;;;5068027;28;20044;-71
2022/07/23 02:14:35;;;;;;;2.47;2.13;;;13.90;99.90;;;;;;5067337;28;20086;-71
2022/07/23 02:17:00;;;;;;;5.07;2.45;;;13.80;99.90;;;;;;5068950;28;20473;-71
2022/07/23 02:19:26;;;;;;;5.00;2.40;;;13.70;99.90;;;;;;5068455;28;20108;-71
2022/07/23 02:21:54;;;;;;;2.20;2.00;;;13.70;99.90;;;;;;5068547;28;20415;-71
2022/07/23 02:24:20;;;;;;;7.43;2.10;;;13.70;99.90;;;;;;5068798;28;20401;-71
2022/07/23 02:26:45;;;;;;;7.93;2.70;;;13.70;99.90;;;;;;5068692;28;20040;-71
2022/07/23 02:29:11;;;;;;;4.72;2.42;;;13.70;99.90;;;;;;5050752;28;20049;-71
2022/07/23 02:31:37;;;;;;;6.18;2.40;;;13.70;99.90;;;;;;5066174;28;20048;-71
2022/07/23 02:34:03;;;;;;;8.15;2.42;;;13.70;99.90;;;;;;5068557;28;20063;-71
2022/07/23 02:36:29;;;;;;;3.67;2.35;;;13.70;99.90;;;;;;5067215;28;20425;-71
2022/07/23 02:38:55;;;;;;;5.38;2.75;;;13.70;99.90;;;;;;5067870;28;20101;-71
2022/07/23 02:41:21;;;;;;;6.60;2.90;;;13.70;99.90;;;;;;5067321;28;20036;-71
2022/07/23 02:43:47;;;;;;;4.47;2.20;;;13.70;99.90;;;;;;5066811;28;20044;-71
2022/07/23 02:46:13;;;;;;;6.13;2.88;;;13.70;99.90;;;;;;5068646;28;20615;-71
2022/07/23 02:48:38;;;;;;;5.05;2.83;;;13.70;99.90;;;;;;5066222;28;20048;-72
2022/07/23 02:51:04;;;;;;;2.65;2.42;;;13.70;99.90;;;;;;5067237;28;20120;-71
2022/07/23 02:53:30;;;;;;;7.90;2.55;;;13.70;99.90;;;;;;5067731;28;20396;-71
2022/07/23 02:55:55;;;;;;;2.15;1.98;;;13.70;99.90;;;;;;5068158;28;20483;-71
2022/07/23 02:58:21;;;;;;;3.65;2.70;;;13.70;99.90;;;;;;5067504;28;20055;-71
2022/07/23 03:00:47;;;;;;;3.05;2.50;;;13.70;99.90;;;;;;5067274;28;20064;-72
2022/07/23 03:03:13;;;;;;;3.83;2.83;;;13.70;99.90;;;;;;5062827;28;20036;-71
2022/07/23 03:05:39;;;;;;;5.05;2.75;;;13.80;99.90;;;;;;5067101;28;20040;-72
2022/07/23 03:08:04;;;;;;;5.47;2.75;;;13.80;99.90;;;;;;5066861;28;20044;-71
2022/07/23 03:10:30;;;;;;;3.75;2.67;;;13.80;99.90;;;;;;5067819;28;20453;-72
2022/07/23 03:12:56;;;;;;;5.47;3.20;;;13.80;99.90;;;;;;5067553;28;20139;-72
2022/07/23 03:15:21;;;;;;;6.18;2.47;;;13.90;99.90;;;;;;5068049;28;20049;-73
2022/07/23 03:17:47;;;;;;;7.70;2.80;;;13.90;99.90;;;;;;5066750;28;20048;-71
2022/07/23 03:20:13;;;;;;;5.57;2.65;;;13.90;99.90;;;;;;5068166;28;20132;-71
2022/07/23 03:22:40;;;;;;;6.03;2.80;;;13.90;99.90;;;;;;5066869;28;20055;-71
2022/07/23 03:25:06;;;;;;;5.18;2.70;;;13.90;99.90;;;;;;5067882;28;20051;-70
2022/07/23 03:27:32;;;;;;;7.85;3.58;;;13.90;99.90;;;;;;5066575;28;20072;-72
2022/07/23 03:29:59;;;;;;;3.42;2.60;;;14.00;99.90;;;;;;5066092;28;20137;-71
2022/07/23 03:32:25;;;;;;;3.60;2.83;;;14.00;99.90;;;;;;5066919;28;20045;-72
2022/07/23 03:34:52;;;;;;;5.03;3.15;;;14.00;99.90;;;;;;5067180;28;20083;-72
2022/07/23 03:37:18;;;;;;;5.43;3.17;;;14.00;99.90;;;;;;5067497;28;20040;-71
2022/07/23 03:39:44;;;;;;;3.80;2.90;;;14.00;99.90;;;;;;5048580;28;20048;-71
2022/07/23 03:42:10;;;;;;;4.53;2.65;;;14.00;99.90;;;;;;5067682;28;20502;-72
2022/07/23 03:44:38;;;;;;;5.50;2.85;;;14.00;99.90;;;;;;5066406;28;20074;-72
2022/07/23 03:47:05;;;;;;;10.15;3.50;;;14.00;99.90;;;;;;5067728;28;20049;-72
2022/07/23 03:49:31;;;;;;;5.70;2.63;;;13.90;99.90;;;;;;5066534;28;20049;-71
2022/07/23 03:51:57;;;;;;;3.33;2.88;;;14.00;99.90;;;;;;5049081;28;20052;-71
2022/07/23 03:54:23;;;;;;;3.17;2.85;;;13.90;99.90;;;;;;5048410;28;20387;-71
2022/07/23 03:56:48;;;;;;;2.80;2.58;;;13.90;99.90;;;;;;5066452;28;20070;-71
2022/07/23 03:59:14;;;;;;;8.13;2.65;;;14.00;99.90;;;;;;5066883;28;20140;-72
2022/07/23 04:01:40;;;;;;;4.82;2.95;;;13.90;99.90;;;;;;5065935;28;20045;-71
2022/07/23 04:04:08;;;;;;;9.05;2.95;;;13.90;99.90;;;;;;5066069;28;20052;-71
2022/07/23 04:06:34;;;;;;;9.05;3.13;;;14.00;99.90;;;;;;5066564;28;20040;-72
2022/07/23 04:09:04;;;;;;;8.98;3.05;;;14.00;99.90;;;;;;5065080;28;20051;-71
2022/07/23 04:11:30;;;;;;;10.38;3.08;;;14.00;99.90;;;;;;5066357;28;20385;-72
2022/07/23 04:13:56;;;;;;;5.43;2.67;;;14.00;99.90;;;;;;5065046;28;20063;-72
2022/07/23 04:16:21;;;;;;;11.15;3.03;;;14.00;99.90;;;;;;5066942;28;20480;-71
2022/07/23 04:18:47;;;;;;;2.67;2.47;;;14.00;99.90;;;;;;5065495;28;20059;-72
2022/07/23 04:21:13;;;;;;;5.13;2.38;;;14.00;99.90;;;;;;5065141;28;20433;-71
2022/07/23 04:23:38;;;;;;;7.93;2.45;;;13.90;99.90;;;;;;5064894;28;20052;-72
2022/07/23 04:26:04;;;;;;;4.90;2.30;;;14.00;99.90;;;;;;5066480;28;20470;-71
2022/07/23 04:28:30;;;;;;;7.03;2.53;;;14.00;99.90;;;;;;5066013;28;20109;-71
2022/07/23 04:30:57;;;;;;;5.10;2.53;;;14.00;99.90;;;;;;5065058;28;20143;-71
2022/07/23 04:33:23;;;;;;;12.27;2.85;;;14.00;99.90;;;;;;5066589;28;20052;-71
2022/07/23 04:35:49;;;;;;;8.02;2.40;;;14.00;99.90;;;;;;5064819;28;20055;-71
2022/07/23 04:38:14;;;;;;;4.20;2.70;;;14.00;99.90;;;;;;5067796;28;20053;-70
2022/07/23 04:40:40;;;;;;;5.38;2.55;;;14.10;99.90;;;;;;5069640;28;20059;-71
2022/07/23 04:43:06;;;;;;;5.20;2.65;;;14.10;99.90;;;;;;5069907;28;20133;-71
2022/07/23 04:45:32;;;;;;;4.85;2.53;;;14.10;99.90;;;;;;5066163;28;20070;-71
2022/07/23 04:47:57;;;;;;;5.95;2.60;;;14.20;99.90;;;;;;5059229;28;20570;-70
2022/07/23 04:50:23;;;;;;;2.97;2.78;;;14.20;99.90;;;;;;5065889;28;20051;-71
2022/07/23 04:52:49;;;;;;;3.40;2.63;;;14.20;99.90;;;;;;5063658;28;20123;-70
2022/07/23 04:55:15;;;;;;;5.25;2.72;;;14.30;99.90;;;;;;5066288;28;20119;-71
2022/07/23 04:57:41;;;;;;;3.15;2.70;;;14.30;99.90;;;;;;5064847;28;20419;-71
2022/07/23 05:00:08;;;;;;;5.43;2.75;;;14.30;99.90;;;;;;5066292;28;20063;-71
2022/07/23 05:02:34;;;;;;;5.45;3.00;;;14.40;99.90;;;;;;5065859;28;20055;-70
2022/07/23 05:05:00;;;;;;;5.63;2.78;;;14.40;99.90;;;;;;5064645;28;20378;-71
2022/07/23 05:07:25;;;;;;;6.95;2.55;;;14.40;99.90;;;;;;5065804;28;20444;-70
2022/07/23 05:09:51;;;;;;;3.78;2.50;;;14.50;99.90;;;;;;5065291;28;20040;-71
2022/07/23 05:12:17;;;;;;;5.38;2.20;;;14.50;99.90;;;;;;5065661;28;20059;-71
2022/07/23 05:14:43;;;;;;;3.83;2.30;;;14.50;99.90;;;;;;5063623;28;20055;-71
2022/07/23 05:17:08;;;;;;;4.13;2.58;;;14.60;99.90;;;;;;5065165;28;20044;-71
2022/07/23 05:19:35;;;;;;;7.03;2.65;;;14.60;99.90;;;;;;5064136;28;20052;-72
2022/07/23 05:22:01;;;;;;;3.63;2.58;;;14.60;99.90;;;;;;5064487;28;20055;-71
2022/07/23 05:24:26;;;;;;;9.68;2.65;;;14.60;99.90;;;;;;5061112;28;20063;-71
2022/07/23 05:26:52;;;;;;;2.50;2.30;;;14.60;99.90;;;;;;5063886;28;20131;-71
2022/07/23 05:29:19;;;;;;;3.80;2.35;;;14.70;99.90;;;;;;5065680;28;20905;-72
2022/07/23 05:31:45;;;;;;;2.90;2.47;;;14.70;99.90;;;;;;5064476;28;20053;-71
2022/07/23 05:34:10;;;;;;;6.10;2.67;;;14.80;99.90;;;;;;5063652;28;20041;-71
2022/07/23 05:36:36;;;;;;;5.07;3.08;;;14.80;99.90;;;;;;5064738;28;20045;-72
2022/07/23 05:39:02;;;;;;;7.72;2.50;;;14.80;99.90;;;;;;5067108;28;20053;-71
2022/07/23 05:41:28;;;;;;;8.25;2.40;;;14.90;99.90;;;;;;5064659;28;20066;-72
2022/07/23 05:43:54;;;;;;;4.70;2.60;;;14.90;99.90;;;;;;5064849;28;20048;-71
2022/07/23 05:46:20;;;;;;;5.30;2.53;;;15.00;99.90;;;;;;5061773;28;20036;-72
2022/07/23 05:48:49;;;;;;;3.60;2.88;;;15.00;99.90;;;;;;5064564;28;20124;-72
2022/07/23 05:51:22;;;;;;;2.92;1.90;;;15.00;99.90;;;;;;5065385;28;20513;-72
2022/07/23 05:53:49;;;;;;;2.35;1.85;;;15.10;99.90;;;;;;5067096;28;20080;-71
2022/07/23 05:56:15;;;;;;;2.83;1.92;;;15.20;99.90;;;;;;5067677;28;20036;-71
2022/07/23 05:58:42;;;;;;;5.18;2.00;;;15.20;99.90;;;;;;5064869;28;20048;-71
2022/07/23 06:01:08;;;;;;;2.72;1.70;;;15.30;99.90;;;;;;5065225;28;20140;-72
2022/07/23 06:03:34;;;;;;;6.03;1.75;;;15.30;99.90;;;;;;5063988;28;20041;-71
2022/07/23 06:06:00;;;;;;;4.90;2.20;;;15.40;99.90;;;;;;5065670;28;20048;-71
2022/07/23 06:08:26;;;;;;;6.85;1.80;;;15.50;99.90;;;;;;5058843;28;20391;-71
2022/07/23 06:10:51;;;;;;;2.47;1.45;;;15.60;99.90;;;;;;5063350;28;20048;-71
2022/07/23 06:13:20;;;;;;;1.52;1.42;;;15.60;99.90;;;;;;5066954;28;20709;-72
2022/07/23 06:15:46;;;;;;;2.33;1.27;;;15.60;99.90;;;;;;5065112;28;20052;-71
2022/07/23 06:18:11;;;;;;;1.88;1.75;;;15.70;99.90;;;;;;5078429;28;20041;-72
2022/07/23 06:20:37;;;;;;;5.03;1.40;;;15.80;99.90;;;;;;5068941;28;20044;-72
2022/07/23 06:23:03;;;;;;;5.20;1.80;;;15.90;99.90;;;;;;5067825;28;20271;-71
2022/07/23 06:25:29;;;;;;;1.27;1.10;;;15.90;99.90;;;;;;5069409;28;20032;-71
2022/07/23 06:27:55;;;;;;;1.60;1.50;;;16.00;99.90;;;;;;5070709;28;20044;-72
2022/07/23 06:30:21;;;;;;;1.83;1.30;;;16.20;99.90;;;;;;5076636;28;20040;-72
2022/07/23 06:32:48;;;;;;;1.55;1.10;;;16.20;99.90;;;;;;5067677;28;20534;-71
2022/07/23 06:35:14;;;;;;;2.78;0.90;;;16.30;99.90;;;;;;5065321;28;20163;-72
2022/07/23 06:37:40;;;;;;;1.33;0.80;;;16.40;99.90;;;;;;5068653;28;20052;-72
2022/07/23 06:40:06;;;;;;;1.83;0.95;;;16.50;99.90;;;;;;5067797;28;20040;-71
2022/07/23 06:42:32;;;;;;;4.15;1.08;;;16.60;99.90;;;;;;5068194;28;20416;-71
2022/07/23 06:44:58;;;;;;;4.50;1.35;;;16.70;99.90;;;;;;5068133;28;20040;-71
2022/07/23 06:47:24;;;;;;;1.75;0.90;;;16.80;99.90;;;;;;5067683;28;20487;-71
2022/07/23 06:49:49;;;;;;;2.88;1.27;;;16.90;99.90;;;;;;5065926;28;20129;-71
2022/07/23 06:52:15;;;;;;;2.55;1.15;;;17.00;99.90;;;;;;5067928;28;20040;-71
2022/07/23 06:54:41;;;;;;;3.83;1.13;;;17.00;99.90;;;;;;5067250;28;20406;-71
2022/07/23 06:57:07;;;;;;;3.85;1.05;;;17.00;99.90;;;;;;5066680;28;20132;-71
2022/07/23 06:59:33;;;;;;;6.93;1.00;;;17.00;99.90;;;;;;5067894;28;20040;-72
2022/07/23 07:01:59;;;;;;;2.28;1.20;;;17.10;99.90;;;;;;5066770;28;20042;-71
2022/07/23 07:04:24;;;;;;;4.07;1.10;;;17.10;99.90;;;;;;5068039;28;20036;-71
2022/07/23 07:06:50;;;;;;;3.15;1.48;;;17.10;99.90;;;;;;5063629;28;20043;-72
2022/07/23 07:09:16;;;;;;;1.75;0.90;;;17.10;99.90;;;;;;5061651;28;20099;-71
2022/07/23 07:11:41;;;;;;;1.20;1.10;;;17.10;99.90;;;;;;5059806;28;20040;-71
2022/07/23 07:14:07;;;;;;;0.60;0.60;;;17.10;99.90;;;;;;5068319;28;20048;-71
2022/07/23 07:16:33;;;;;;;1.40;0.73;;;16.90;99.90;;;;;;5067426;28;20310;-71
2022/07/23 07:18:59;;;;;;;1.73;0.65;;;16.80;99.90;;;;;;5069787;28;20434;-71
2022/07/23 07:21:25;;;;;;;2.05;0.65;;;16.70;99.90;;;;;;5049568;28;20477;-72
2022/07/23 07:23:50;;;;;;;1.27;0.65;;;16.70;99.90;;;;;;5066585;28;20127;-71
2022/07/23 07:26:16;;;;;;;2.13;0.90;;;16.70;99.90;;;;;;5066128;28;20047;-71
2022/07/23 07:28:42;;;;;;;1.77;0.82;;;16.60;99.90;;;;;;5065609;28;20039;-71
2022/07/23 07:31:07;;;;;;;1.88;0.65;;;16.60;99.90;;;;;;5069024;28;20242;-71
2022/07/23 07:33:33;;;;;;;2.00;0.57;;;16.40;99.90;;;;;;5066854;28;20046;-71
2022/07/23 07:36:00;;;;;;;2.25;0.85;;;16.40;99.90;;;;;;5072072;28;20052;-70
2022/07/23 07:38:26;;;;;;;3.10;0.80;;;16.30;99.90;;;;;;5065245;28;20055;-71
2022/07/23 07:40:52;;;;;;;2.05;1.17;;;16.30;99.90;;;;;;5066366;28;20044;-70
2022/07/23 07:43:18;;;;;;;0.80;0.60;;;16.30;99.90;;;;;;5066901;28;20080;-70
2022/07/23 07:45:44;;;;;;;2.30;0.70;;;16.40;99.90;;;;;;5066485;28;20072;-71
2022/07/23 07:48:10;;;;;;;1.00;0.65;;;16.50;99.90;;;;;;5067487;28;20047;-70
2022/07/23 07:50:35;;;;;;;0.57;0.57;;;16.50;99.90;;;;;;5069210;28;20072;-71
2022/07/23 07:53:01;;;;;;;1.80;0.50;;;16.70;99.90;;;;;;5065447;28;20037;-71
2022/07/23 07:55:28;;;;;;;8.07;0.63;;;16.80;99.90;;;;;;5065218;28;20044;-71
2022/07/23 07:57:54;;;;;;;2.22;0.52;;;17.00;99.90;;;;;;5065979;28;20056;-71
2022/07/23 08:00:20;;;;;;;1.05;0.43;;;17.20;99.90;;;;;;5065464;28;20036;-71
2022/07/23 08:02:48;;;;;;;1.95;0.20;;;17.40;99.90;;;;;;5066203;28;20051;-71
2022/07/23 08:05:18;;;;;;;0.63;0.30;;;17.30;97.40;;;;;;5065605;28;20036;-70
2022/07/23 08:07:43;;;;;;;;;;;17.30;91.40;;;;;;5065752;28;20051;-70
2022/07/23 08:10:10;;;;;;;1.42;0.38;;;17.50;99.90;;;;;;5065261;28;19928;-70
2022/07/23 08:12:39;;;;;;;1.48;0.68;;;17.50;98.70;;;;;;5065203;28;20075;-71
2022/07/23 08:15:06;;;;;;;1.90;0.50;;;17.60;99.80;;;;;;5064546;28;20127;-71
2022/07/23 08:17:32;;;;;;;3.67;0.60;;;17.50;99.90;;;;;;5066327;28;20052;-70
2022/07/23 08:19:57;;;;;;;1.65;0.50;;;17.70;99.90;;;;;;5064766;28;20049;-70
2022/07/23 08:22:23;;;;;;;0.95;0.40;;;17.90;99.90;;;;;;5065400;28;20495;-71
2022/07/23 08:24:49;;;;;;;2.55;0.32;;;18.00;97.20;;;;;;5065317;28;20032;-71
2022/07/23 08:27:14;;;;;;;1.17;0.40;;;18.30;97.00;;;;;;5065013;28;20159;-70
2022/07/23 08:29:40;;;;;;;2.08;0.30;;;18.50;86.60;;;;;;5062289;28;20044;-70
2022/07/23 08:32:06;;;;;;;1.13;0.30;;;18.50;84.30;;;;;;5063512;28;20039;-71
2022/07/23 08:34:31;;;;;;;2.78;0.32;;;18.50;92.70;;;;;;5066971;28;20041;-70
2022/07/23 08:36:57;;;;;;;1.00;0.28;;;18.40;93.20;;;;;;5066306;28;20214;-71
2022/07/23 08:39:23;;;;;;;1.40;0.20;;;18.20;91.70;;;;;;5065466;28;20056;-71
2022/07/23 08:41:50;;;;;;;1.02;0.38;;;18.00;91.30;;;;;;5065736;28;20120;-71
2022/07/23 08:44:19;;;;;;;6.13;1.77;;;17.80;91.10;;;;;;5064309;28;20037;-71
2022/07/23 08:46:45;;;;;;;1.10;0.28;;;17.70;90.40;;;;;;5063949;28;20040;-71
2022/07/23 08:49:12;;;;;;;1.58;0.40;;;18.00;93.20;;;;;;5063740;28;20691;-70
2022/07/23 08:51:38;;;;;;;1.60;0.45;;;18.50;92.90;;;;;;5064375;28;20052;-70
2022/07/23 08:54:04;;;;;;;2.22;0.60;;;18.90;88.60;;;;;;5064778;28;20044;-70
2022/07/23 08:56:29;;;;;;;0.50;0.38;;;19.30;87.40;;;;;;5064421;28;20083;-71
2022/07/23 08:58:55;;;;;;;1.35;0.30;;;19.30;78.10;;;;;;5065668;28;20080;-71
2022/07/23 09:01:21;;;;;;;4.68;0.45;;;19.10;75.80;;;;;;5065407;28;20090;-70
2022/07/23 09:03:47;;;;;;;3.13;0.43;;;18.90;74.00;;;;;;5064541;28;20040;-71
2022/07/23 09:06:12;;;;;;;4.57;0.60;;;18.90;82.80;;;;;;5064075;28;20040;-70
2022/07/23 09:08:43;;;;;;;1.42;0.47;;;19.30;88.50;;;;;;5065596;28;20098;-71
2022/07/23 09:11:12;;;;;;;1.23;0.40;;;19.30;62.80;;;;;;5065734;28;20048;-71
2022/07/23 09:13:43;;;;;;;2.25;0.50;;;18.90;70.60;;;;;;5064246;28;20136;-71
2022/07/23 09:16:14;;;;;;;2.08;0.40;;;18.60;76.30;;;;;;5065098;28;20049;-71
2022/07/23 09:18:45;;;;;;;4.13;0.40;;;18.50;90.50;;;;;;5065706;28;20047;-71
2022/07/23 09:21:15;;;;;;;4.20;0.22;;;18.40;90.20;;;;;;5063816;28;20072;-70
2022/07/23 09:23:58;;;;;;;1.55;0.47;;;18.30;93.80;;;;;;5064270;28;20502;-71
2022/07/23 09:26:25;;;;;;;0.57;0.40;;;18.20;95.10;;;;;;5055376;28;20044;-71
2022/07/23 09:29:08;;;;;;;1.65;0.40;;;18.40;90.70;;;;;;5066455;28;20048;-71
2022/07/23 09:31:58;;;;;;;0.40;0.30;;;18.40;80.80;;;;;;5066627;28;20442;-71
2022/07/23 09:34:25;;;;;;;;;;;18.30;88.10;;;;;;5066208;28;20045;-71
2022/07/23 09:36:55;;;;;;;2.45;0.60;;;18.20;93.40;;;;;;5065165;28;20018;-70
2022/07/23 09:39:26;;;;;;;1.65;0.60;;;18.10;72.00;;;;;;5064914;28;20493;-71
2022/07/23 09:41:51;;;;;;;0.30;0.30;;;18.40;87.50;;;;;;5063606;28;20056;-71
2022/07/23 09:44:20;;;;;;;8.13;0.50;;;18.70;92.80;;;;;;5062158;28;20036;-71
2022/07/23 09:46:57;;;;;;;1.48;0.20;;;18.90;65.20;;;;;;5059442;28;20496;-70
2022/07/23 09:49:23;;;;;;;2.38;0.45;;;18.90;76.50;;;;;;5064264;28;20560;-70
2022/07/23 09:52:01;;;;;;;2.13;0.57;;;19.00;74.60;;;;;;5065395;28;20041;-71
2022/07/23 09:54:38;;;;;;;0.30;0.30;;;19.30;86.90;;;;;;5068737;28;20074;-71
2022/07/23 09:57:13;;;;;;;1.67;0.40;;;19.60;70.00;;;;;;5066018;28;20063;-71
2022/07/23 09:59:39;;;;;;;0.43;0.20;;;19.50;45.70;;;;;;5064921;28;20048;-71
2022/07/23 10:02:07;;;;;;;0.60;0.20;;;19.40;50.90;;;;;;5067554;28;20082;-70
2022/07/23 10:04:33;;;;;;;1.52;0.30;;;19.20;58.30;;;;;;5068505;28;20040;-71
2022/07/23 10:07:02;;;;;;;0.30;0.30;;;19.20;66.60;;;;;;5066204;28;20123;-71
2022/07/23 10:09:32;;;;;;;1.13;0.30;;;19.40;68.10;;;;;;5067174;28;20048;-70
2022/07/23 10:12:26;;;;;;;2.15;0.43;;;19.80;49.00;;;;;;5068331;28;20047;-70
2022/07/23 10:14:47;;;;;;;0.30;0.20;;;20.00;55.10;;;;;;5064602;28;20482;-71
2022/07/23 10:17:14;;;;;;;1.88;0.47;;;20.10;45.80;;;;;;5067442;28;20079;-72
2022/07/23 10:19:40;;;;;;;0.30;0.30;;;20.10;66.80;;;;;;5067049;28;20048;-70
2022/07/23 10:22:18;;;;;;;4.50;0.43;;;19.90;62.20;;;;;;5067154;28;20036;-71
2022/07/23 10:25:05;;;;;;;1.13;0.32;;;19.80;73.30;;;;;;5067637;28;20041;-71
2022/07/23 10:27:50;;;;;;;0.38;0.30;;;19.70;60.30;;;;;;5066748;28;20040;-73
2022/07/23 10:30:35;;;;;;;0.63;0.35;;;19.50;72.20;;;;;;5067181;28;20040;-71
2022/07/23 10:33:24;;;;;;;1.42;0.28;;;19.50;69.40;;;;;;5066623;28;20370;-71
2022/07/23 10:36:00;;;;;;;3.10;0.45;;;19.50;83.80;;;;;;5073210;28;20048;-71
2022/07/23 10:38:39;;;;;;;1.45;0.43;;;19.30;74.20;;;;;;5067607;28;20057;-70
2022/07/23 10:41:05;;;;;;;1.17;0.40;;;19.10;66.70;;;;;;5066421;28;20473;-70
2022/07/23 10:43:31;;;;;;;2.88;0.57;;;19.00;90.40;;;;;;5066970;28;20051;-71
2022/07/23 10:46:36;;;;;;;0.95;0.30;;;19.10;86.90;;;;;;5066398;28;20048;-70
2022/07/23 10:49:21;;;;;;;1.13;0.40;;;19.10;75.20;;;;;;5067784;28;20040;-71
2022/07/23 10:52:17;;;;;;;1.42;0.60;;;19.10;61.90;;;;;;5060165;28;20141;-71
2022/07/23 10:54:54;;;;;;;1.08;0.35;;;19.30;70.50;;;;;;5060137;28;20059;-71
2022/07/23 10:57:23;;;;;;;1.67;0.30;;;19.40;69.60;;;;;;5066010;28;20055;-70
2022/07/23 11:00:02;;;;;;;0.98;0.50;;;19.40;76.00;;;;;;5066994;28;20041;-71
2022/07/23 11:02:32;;;;;;;3.28;0.52;;;19.40;71.20;;;;;;5067062;28;20667;-71
2022/07/23 11:05:13;;;;;;;0.32;0.20;;;19.40;73.30;;;;;;5067492;28;20123;-71
2022/07/23 11:08:03;;;;;;;2.75;0.30;;;19.50;84.10;;;;;;5064356;28;20044;-71
2022/07/23 11:10:40;;;;;;;0.52;0.32;;;19.30;66.20;;;;;;5066162;28;20059;-71
2022/07/23 11:13:21;;;;;;;2.28;0.50;;;19.30;69.90;;;;;;5065825;28;20406;-71
2022/07/23 11:16:08;;;;;;;0.95;0.38;;;19.20;69.70;;;;;;5067918;28;20127;-71
2022/07/23 11:18:40;;;;;;;1.70;0.43;;;19.20;82.90;;;;;;5065916;28;20522;-70
2022/07/23 11:21:20;;;;;;;2.15;0.60;;;19.30;82.30;;;;;;5054509;28;20105;-70
2022/07/23 11:24:15;;;;;;;1.05;0.45;;;19.40;77.50;;;;;;5066914;28;20495;-70
2022/07/23 11:26:52;;;;;;;1.13;0.30;;;19.50;63.90;;;;;;5067253;28;20570;-71
2022/07/23 11:29:27;;;;;;;0.50;0.30;;;19.30;75.60;;;;;;5067208;28;20047;-70
2022/07/23 11:32:06;;;;;;;1.85;0.50;;;19.10;74.30;;;;;;5065567;28;20051;-72
2022/07/23 11:34:34;;;;;;;0.32;0.30;;;19.00;78.20;;;;;;5064582;28;20127;-71
2022/07/23 11:37:02;;;;;;;2.30;0.30;;;19.00;90.90;;;;;;5067618;28;20048;-71
2022/07/23 11:39:29;;;;;;;1.30;0.60;;;19.10;84.40;;;;;;5064961;28;20190;-70
2022/07/23 11:41:57;;;;;;;3.17;0.60;;;19.10;79.70;;;;;;5066601;28;20043;-70
2022/07/23 11:44:32;;;;;;;1.13;0.40;;;19.00;90.10;;;;;;5065632;28;20439;-70
2022/07/23 11:47:07;;;;;;;1.30;0.35;;;19.00;84.80;;;;;;5066522;28;20151;-70
2022/07/23 11:49:33;;;;;;;0.80;0.40;;;18.90;89.80;;;;;;5066749;28;20059;-71
2022/07/23 11:52:07;;;;;;;2.30;0.80;;;18.90;90.20;;;;;;5067012;28;20045;-70
2022/07/23 11:54:35;;;;;;;1.90;0.57;;;19.00;94.80;;;;;;5066396;28;20075;-70
2022/07/23 11:57:03;;;;;;;2.83;0.40;;;19.10;89.90;;;;;;5066104;28;20398;-70
2022/07/23 11:59:33;;;;;;;2.88;0.45;;;19.10;86.70;;;;;;5066768;28;20049;-71
2022/07/23 12:02:04;;;;;;;1.58;0.52;;;19.00;91.10;;;;;;5066753;28;20047;-71
2022/07/23 12:04:41;;;;;;;2.03;0.60;;;18.90;93.60;;;;;;5065883;28;20051;-71
2022/07/23 12:07:49;;;;;;;0.98;0.38;;;18.70;96.10;;;;;;5066409;28;20036;-70
2022/07/23 12:10:21;;;;;;;1.55;0.77;;;18.70;97.90;;;;;;4987763;28;20041;-69
2022/07/23 12:12:49;;;;;;;6.05;0.70;;;18.80;96.50;;;;;;5056196;28;20131;-70
2022/07/23 12:15:16;;;;;;;1.13;0.45;;;18.80;94.80;;;;;;5064423;28;20518;-70
2022/07/23 12:17:45;;;;;;;2.10;0.50;;;18.70;95.50;;;;;;5065515;28;20115;-70
2022/07/23 12:20:15;;;;;;;3.38;0.55;;;18.80;99.80;;;;;;5066971;28;20045;-70
2022/07/23 12:22:47;;;;;;;1.05;0.50;;;18.70;94.70;;;;;;5064554;28;20052;-70
2022/07/23 12:25:17;;;;;;;1.27;0.60;;;18.80;95.70;;;;;;5063248;28;20118;-71
2022/07/23 12:27:44;;;;;;;1.23;0.60;;;18.80;97.10;;;;;;5057038;28;20051;-71
2022/07/23 12:30:27;;;;;;;1.13;0.40;;;18.70;94.40;;;;;;5066180;28;20037;-71
2022/07/23 12:32:56;;;;;;;6.10;0.73;;;18.70;99.60;;;;;;5073112;28;20045;-71
2022/07/23 12:35:29;;;;;;;2.58;0.65;;;18.70;96.70;;;;;;5065181;28;20398;-71
2022/07/23 12:38:02;;;;;;;1.65;0.57;;;18.70;96.60;;;;;;5066421;28;20052;-71
2022/07/23 12:40:36;;;;;;;3.72;0.82;;;18.80;99.90;;;;;;5065348;28;20040;-72
2022/07/23 12:43:05;;;;;;;2.47;0.40;;;18.90;96.60;;;;;;5065668;28;20037;-71
2022/07/23 12:45:55;;;;;;;1.30;0.80;;;19.00;96.50;;;;;;5064933;28;20605;-71
2022/07/23 12:48:27;;;;;;;3.00;0.60;;;19.00;97.00;;;;;;5065930;28;20124;-71
2022/07/23 12:50:55;;;;;;;3.55;0.60;;;19.10;98.80;;;;;;5067574;28;20110;-72
2022/07/23 12:53:31;;;;;;;2.10;0.70;;;19.10;95.60;;;;;;5061538;28;20127;-71